地図

経路データ

SID SEASON NUMBER BASIN SUBBASIN NAME ISO_TIME NATURE LAT LON WMO_WIND WMO_PRES WMO_AGENCY TRACK_TYPE DIST2LAND LANDFALL IFLAG USA_AGENCY USA_ATCF_ID USA_LAT USA_LON USA_RECORD USA_STATUS USA_WIND USA_PRES USA_SSHS USA_R34_NE USA_R34_SE USA_R34_SW USA_R34_NW USA_R50_NE USA_R50_SE USA_R50_SW USA_R50_NW USA_R64_NE USA_R64_SE USA_R64_SW USA_R64_NW USA_POCI USA_ROCI USA_RMW USA_EYE TOKYO_LAT TOKYO_LON TOKYO_GRADE TOKYO_WIND TOKYO_PRES TOKYO_R50_DIR TOKYO_R50_LONG TOKYO_R50_SHORT TOKYO_R30_DIR TOKYO_R30_LONG TOKYO_R30_SHORT TOKYO_LAND CMA_LAT CMA_LON CMA_CAT CMA_WIND CMA_PRES HKO_LAT HKO_LON HKO_CAT HKO_WIND HKO_PRES NEWDELHI_LAT NEWDELHI_LON NEWDELHI_GRADE NEWDELHI_WIND NEWDELHI_PRES NEWDELHI_CI NEWDELHI_DP NEWDELHI_POCI REUNION_LAT REUNION_LON REUNION_TYPE REUNION_WIND REUNION_PRES REUNION_TNUM REUNION_CI REUNION_RMW REUNION_R34_NE REUNION_R34_SE REUNION_R34_SW REUNION_R34_NW REUNION_R50_NE REUNION_R50_SE REUNION_R50_SW REUNION_R50_NW REUNION_R64_NE REUNION_R64_SE REUNION_R64_SW REUNION_R64_NW BOM_LAT BOM_LON BOM_TYPE BOM_WIND BOM_PRES BOM_TNUM BOM_CI BOM_RMW BOM_R34_NE BOM_R34_SE BOM_R34_SW BOM_R34_NW BOM_R50_NE BOM_R50_SE BOM_R50_SW BOM_R50_NW BOM_R64_NE BOM_R64_SE BOM_R64_SW BOM_R64_NW BOM_ROCI BOM_POCI BOM_EYE BOM_POS_METHOD BOM_PRES_METHOD NADI_LAT NADI_LON NADI_CAT NADI_WIND NADI_PRES WELLINGTON_LAT WELLINGTON_LON WELLINGTON_WIND WELLINGTON_PRES DS824_LAT DS824_LON DS824_STAGE DS824_WIND DS824_PRES TD9636_LAT TD9636_LON TD9636_STAGE TD9636_WIND TD9636_PRES TD9635_LAT TD9635_LON TD9635_WIND TD9635_PRES TD9635_ROCI NEUMANN_LAT NEUMANN_LON NEUMANN_CLASS NEUMANN_WIND NEUMANN_PRES MLC_LAT MLC_LON MLC_CLASS MLC_WIND MLC_PRES USA_GUST BOM_GUST BOM_GUST_PER REUNION_GUST REUNION_GUST_PER USA_SEAHGT USA_SEARAD_NE USA_SEARAD_SE USA_SEARAD_SW USA_SEARAD_NW STORM_SPEED STORM_DIR
1951255N08148 1951 69 WP MM ORA 1951-09-11 18:00:00 TS 8.00000 147.550 1006 tokyo main 1132 1131 _OO___________ -1 8.00000 147.600 2 1006 0 0 0 8.00000 147.500 0 1006 9 302
1951255N08148 1951 69 WP MM ORA 1951-09-11 21:00:00 TS 8.23384 147.169 main 1154 1154 _PP___________ -1 8.20511 147.188 2 1006 0 0 8.26256 147.150 0 1006 9 301
1951255N08148 1951 69 WP MM ORA 1951-09-12 00:00:00 TS 8.45000 146.800 1006 tokyo main 1187 1176 _OO___________ -1 8.40000 146.800 2 1006 0 0 0 8.50000 146.800 0 19 1006 8 300
1951255N08148 1951 69 WP MM ORA 1951-09-12 03:00:00 TS 8.64245 146.450 main 1199 1199 _PP___________ -1 8.58493 146.450 2 1005 0 0 8.69997 146.450 0 21 1005 8 300
1951255N08148 1951 69 WP MM ORA 1951-09-12 06:00:00 TS 8.85000 146.100 1004 tokyo main 1233 1233 _OO___________ -1 8.80000 146.100 2 1004 0 0 0 8.90000 146.100 1 23 1004 8 304
1951255N08148 1951 69 WP MM ORA 1951-09-12 09:00:00 TS 9.10992 145.744 main 1258 1258 _PP___________ -1 9.08496 145.715 2 1004 0 0 9.13489 145.772 1 26 1004 9 307
1951255N08148 1951 69 WP MM ORA 1951-09-12 12:00:00 TS 9.40000 145.350 1004 tokyo main 1295 1295 _OO___________ -1 9.40000 145.300 2 1004 0 0 0 9.40000 145.400 1 29 1004 10 305
1951255N08148 1951 69 WP MM ORA 1951-09-12 15:00:00 TS 9.69626 144.886 main 1335 1335 _PP___________ -1 9.69997 144.857 2 1004 0 0 9.69255 144.915 1 29 1004 11 303
1951255N08148 1951 69 WP MM ORA 1951-09-12 18:00:00 TS 10.0000 144.400 1004 tokyo main 1377 1377 _OO___________ -1 10.0000 144.400 2 1004 0 0 0 10.0000 144.400 1 29 1004 11 303
1951255N08148 1951 69 WP MM ORA 1951-09-12 21:00:00 TS 10.2999 143.950 main 1421 1421 _PP___________ -1 10.2999 143.950 2 1004 0 0 10.2999 143.950 1 29 1004 11 304
1951255N08148 1951 69 WP MM ORA 1951-09-13 00:00:00 TS 10.6000 143.500 1004 tokyo main 1463 1463 _OO___________ -1 10.6000 143.500 2 1004 0 0 0 10.6000 143.500 1 29 1004 11 304
1951255N08148 1951 69 WP MM ORA 1951-09-13 03:00:00 TS 10.9075 143.021 main 1498 1498 _PP___________ -1 10.9074 143.050 2 1004 0 0 10.9075 142.993 1 29 1004 11 303
1951255N08148 1951 69 WP MM ORA 1951-09-13 06:00:00 TS 11.2000 142.550 1004 tokyo main 1514 1511 _OO___________ -1 11.2000 142.600 2 1004 0 0 0 11.2000 142.500 1 29 1004 10 302
1951255N08148 1951 69 WP MM ORA 1951-09-13 09:00:00 TS 11.4573 142.136 main 1529 1526 _PP___________ -1 11.4574 142.165 2 1004 0 0 11.4573 142.107 1 29 1004 10 301
1951255N08148 1951 69 WP MM ORA 1951-09-13 12:00:00 TS 11.7000 141.700 1004 tokyo main 1539 1535 _OO___________ -1 11.7000 141.700 2 1004 0 0 0 11.7000 141.700 1 29 1004 11 298
1951255N08148 1951 69 WP MM ORA 1951-09-13 15:00:00 TS 11.9537 141.176 main 1549 1539 _PP___________ -1 11.9574 141.172 2 1004 0 0 11.9500 141.180 1 29 1004 12 295
1951255N08148 1951 69 WP MM ORA 1951-09-13 18:00:00 TS 12.2000 140.600 1004 tokyo main 1546 1542 _OO___________ -1 12.2000 140.600 2 1004 0 0 0 12.2000 140.600 1 29 1004 12 293
1951255N08148 1951 69 WP MM ORA 1951-09-13 21:00:00 TS 12.4362 140.007 main 1546 1491 _PP___________ -1 12.4074 140.007 2 1004 0 0 12.4649 140.008 1 29 1004 13 291
1951255N08148 1951 69 WP MM ORA 1951-09-14 00:00:00 TS 12.6500 139.400 1004 tokyo main 1493 1429 _OO___________ -1 12.6000 139.400 2 1004 0 0 0 12.7000 139.400 1 29 1004 13 290
1951255N08148 1951 69 WP MM ORA 1951-09-14 03:00:00 TS 12.8586 138.800 main 1430 1367 _PP___________ -1 12.8299 138.800 2 1003 0 0 12.8874 138.800 1 29 1003 12 287
1951255N08148 1951 69 WP MM ORA 1951-09-14 06:00:00 TS 13.0000 138.200 1002 tokyo main 1367 1303 _OO___________ -1 13.0000 138.200 2 1002 0 0 0 13.0000 138.200 1 29 1002 12 278
1951255N08148 1951 69 WP MM ORA 1951-09-14 09:00:00 TS 13.0261 137.607 main 1303 1239 _PP___________ -1 13.0298 137.615 2 1002 0 0 13.0224 137.600 1 29 1002 12 270
1951255N08148 1951 69 WP MM ORA 1951-09-14 12:00:00 TS 13.0000 137.000 1002 tokyo main 1239 1175 _OO___________ -1 13.0000 137.000 2 1002 0 0 0 13.0000 137.000 1 29 1002 12 269
1951255N08148 1951 69 WP MM ORA 1951-09-14 15:00:00 TS 13.0000 136.350 main 1175 1100 _PP___________ -1 13.0001 136.293 2 1001 0 0 12.9998 136.408 1 29 1001 13 270
1951255N08148 1951 69 WP MM ORA 1951-09-14 18:00:00 TS 13.0000 135.700 1000 tokyo main 1100 1036 _OO___________ -1 13.0000 135.600 2 1000 0 0 0 13.0000 135.800 1 29 1000 12 270
1951255N08148 1951 69 WP MM ORA 1951-09-14 21:00:00 TS 12.9924 135.077 main 1036 972 _PP___________ -1 12.9923 135.020 2 1000 0 0 12.9925 135.135 1 29 1000 12 270
1951255N08148 1951 69 WP MM ORA 1951-09-15 00:00:00 TS 13.0000 134.500 1000 tokyo main 972 920 _OO___________ -1 13.0000 134.500 2 1000 0 0 0 13.0000 134.500 1 29 1000 11 272
1951255N08148 1951 69 WP MM ORA 1951-09-15 03:00:00 TS 13.0311 133.981 main 920 870 _PP___________ -1 13.0274 133.985 2 1000 0 0 13.0348 133.977 1 29 1000 10 276
1951255N08148 1951 69 WP MM ORA 1951-09-15 06:00:00 TS 13.1000 133.500 1000 tokyo main 870 821 _OO___________ -1 13.1000 133.500 2 1000 0 0 0 13.1000 133.500 1 29 1000 10 281
1951255N08148 1951 69 WP MM ORA 1951-09-15 09:00:00 TS 13.2100 133.006 main 821 780 _PP___________ -1 13.2349 133.035 2 999 0 0 13.1850 132.978 1 33 999 10 285
1951255N08148 1951 69 WP MM ORA 1951-09-15 12:00:00 TS 13.3500 132.550 998 tokyo main 781 741 _OO___________ -1 13.4000 132.600 2 998 0 0 0 13.3000 132.500 2 38 998 9 290
1951255N08148 1951 69 WP MM ORA 1951-09-15 15:00:00 TS 13.5074 132.164 main 741 700 _PP___________ -1 13.5649 132.193 2 998 0 0 13.4498 132.135 2 38 998 8 292
1951255N08148 1951 69 WP MM ORA 1951-09-15 18:00:00 TS 13.6500 131.800 998 tokyo main 703 661 _OO___________ -1 13.7000 131.800 2 998 0 0 0 13.6000 131.800 2 38 998 8 287
1951255N08148 1951 69 WP MM ORA 1951-09-15 21:00:00 TS 13.7249 131.411 main 661 622 _PP___________ -1 13.7499 131.407 2 998 0 0 13.6999 131.415 2 38 998 9 284
1951255N08148 1951 69 WP MM ORA 1951-09-16 00:00:00 TS 13.8667 130.933 998 tokyo main 615 578 OOO______OOO__ jtwc_wp WP091951 14.0000 130.800 40 0 13.8000 131.000 9 998 0 0 0 13.8000 131.000 2 38 998 14.0000 130.800 TC 40 14.0000 130.800 2 40 14.0000 130.800 40 1000 360 9 285
1951255N08148 1951 69 WP MM ORA 1951-09-16 03:00:00 TS 13.9654 130.476 main 578 527 PPP______PPP__ WP091951 13.9924 130.438 42 0 13.9350 130.550 9 991 0 0 13.9500 130.550 2 48 991 13.9924 130.438 TC 42 13.9760 130.298 2 42 13.9924 130.438 42 998 360 9 281
1951255N08148 1951 69 WP MM ORA 1951-09-16 06:00:00 TS 14.0372 130.011 985 tokyo main 527 482 OOO______OPO__ jtwc_wp WP091951 14.0000 130.000 45 0 14.1000 130.100 9 985 0 0 0 14.1000 130.100 3 58 985 14.0000 130.000 TC 45 13.9811 129.807 2 45 14.0000 130.000 45 996 360 9 278
1951255N08148 1951 69 WP MM ORA 1951-09-16 09:00:00 TS 14.1039 129.512 main 482 449 PPP______PPP__ WP091951 14.0477 129.450 47 0 14.2424 129.692 9 985 0 0 14.1924 129.692 3 58 985 14.0477 129.450 TC 47 14.0456 129.337 2 47 14.0477 129.450 47 994 360 10 283
1951255N08148 1951 69 WP MM ORA 1951-09-16 12:00:00 TS 14.2500 129.033 985 tokyo main 446 422 OOO______OOO__ jtwc_wp WP091951 14.2000 128.900 50 0 14.4000 129.300 9 985 0 0 0 14.3000 129.300 3 58 985 14.2000 128.900 TC 50 14.2000 128.900 2 50 14.2000 128.900 50 993 360 10 296
1951255N08148 1951 69 WP MM ORA 1951-09-16 15:00:00 TS 14.5174 128.619 main 422 412 PPP______PPP__ WP091951 14.5273 128.470 50 0 14.5849 128.900 9 985 0 0 14.4774 128.900 3 58 985 14.5273 128.470 TC 50 14.4601 128.501 2 51 14.5273 128.470 50 991 360 10 307
1951255N08148 1951 69 WP MM ORA 1951-09-16 18:00:00 TS 14.8307 128.238 985 tokyo main 412 400 OOO______OPO__ jtwc_wp WP091951 14.9000 128.100 50 0 14.8000 128.500 9 985 0 0 0 14.7000 128.500 3 58 985 14.9000 128.100 TC 50 14.7844 128.128 2 52 14.9000 128.100 50 989 360 9 310
1951255N08148 1951 69 WP MM ORA 1951-09-16 21:00:00 TS 15.1168 127.873 main 400 368 PPP______PPP__ WP091951 15.1949 127.750 52 0 15.0648 128.115 9 985 0 0 14.9349 128.107 3 58 985 15.1949 127.750 TC 52 15.1164 127.767 2 53 15.1949 127.750 52 987 360 9 306
1951255N08148 1951 69 WP MM ORA 1951-09-17 00:00:00 TS 15.3500 127.500 985 tokyo main 373 335 OOO______OOO__ jtwc_wp WP091951 15.4000 127.400 55 0 15.3000 127.700 9 985 0 0 0 15.2000 127.700 3 58 985 15.4000 127.400 TC 55 15.4000 127.400 2 55 15.4000 127.400 55 986 360 8 294
1951255N08148 1951 69 WP MM ORA 1951-09-17 03:00:00 TS 15.4648 127.076 main 341 305 PPP______PPP__ WP091951 15.4650 127.007 65 1 15.3776 127.192 9 985 0 0 15.5075 127.250 3 58 985 15.4650 127.007 TC 65 15.5088 126.990 2 60 15.4650 127.007 65 986 390 9 284
1951255N08148 1951 69 WP MM ORA 1951-09-17 06:00:00 TS 15.5617 126.646 985 tokyo main 303 286 OOO______OPO__ jtwc_wp WP091951 15.5000 126.600 75 1 15.5000 126.700 9 985 0 0 0 15.8000 126.800 3 58 985 15.5000 126.600 TC 75 15.5701 126.576 2 65 15.5000 126.600 75 987 420 8 288
1951255N08148 1951 69 WP MM ORA 1951-09-17 09:00:00 TS 15.7256 126.243 main 279 272 PPP______PPP__ WP091951 15.6050 126.192 75 1 15.8848 126.328 9 985 0 0 16.0075 126.377 3 58 985 15.6050 126.192 TC 75 15.6463 126.174 2 70 15.6050 126.192 75 986 420 8 297
1951255N08148 1951 69 WP MM ORA 1951-09-17 12:00:00 TS 15.9500 125.867 985 tokyo main 282 269 OOO______OOO__ jtwc_wp WP091951 15.8000 125.800 75 1 16.3000 126.000 9 985 0 0 0 16.2000 126.000 3 58 985 15.8000 125.800 TC 75 15.8000 125.800 3 75 15.8000 125.800 75 986 420 9 306
1951255N08148 1951 69 WP MM ORA 1951-09-17 15:00:00 TS 16.2283 125.519 main 277 277 PPP______PPP__ WP091951 16.1050 125.428 75 1 16.5150 125.642 9 982 0 0 16.4349 125.692 3 67 982 16.1050 125.428 TC 75 16.1050 125.499 3 76 16.1050 125.428 75 985 420 9 314
1951255N08148 1951 69 WP MM ORA 1951-09-17 18:00:00 TS 16.5657 125.204 980 tokyo main 289 266 OOO______OPO__ jtwc_wp WP091951 16.5000 125.100 75 1 16.7000 125.300 9 980 0 0 0 16.7000 125.400 4 77 980 16.5000 125.100 TC 75 16.4941 125.222 3 77 16.5000 125.100 75 984 420 9 322
1951255N08148 1951 69 WP MM ORA 1951-09-17 21:00:00 TS 16.9417 124.936 main 255 234 PPP______PPP__ WP091951 16.9273 124.865 77 1 16.9624 125.000 9 980 0 0 16.9698 125.087 4 82 975 16.9273 124.865 TC 77 16.9362 124.933 3 78 16.9273 124.865 77 983 420 10 326
1951255N08148 1951 69 WP MM ORA 1951-09-18 00:00:00 TS 17.3667 124.633 980 tokyo main 227 198 OOO______OOO__ jtwc_wp WP091951 17.4000 124.600 80 1 17.3000 124.700 9 980 0 0 0 17.3000 124.700 5 87 970 17.4000 124.600 TC 80 17.4000 124.600 4 80 17.4000 124.600 80 983 420 11 323
1951255N08148 1951 69 WP MM ORA 1951-09-18 03:00:00 TS 17.8531 124.217 main 202 158 PPP______PPP__ WP091951 17.9075 124.188 82 1 17.7348 124.380 9 980 0 0 17.7653 124.151 5 82 975 17.9075 124.188 TC 82 17.8961 124.209 4 81 17.9075 124.188 82 983 420 13 319
1951255N08148 1951 69 WP MM ORA 1951-09-18 06:00:00 TS 18.3328 123.744 980 tokyo main 147 110 OOO______OPO__ jtwc_wp WP091951 18.4000 123.700 85 2 18.2000 124.000 9 980 0 0 0 18.2000 123.600 4 77 980 18.4000 123.700 TC 85 18.3966 123.764 4 82 18.4000 123.700 85 983 420 13 316
1951255N08148 1951 69 WP MM ORA 1951-09-18 09:00:00 TS 18.7491 123.294 main 110 85 PPP______PPP__ WP091951 18.8522 123.230 85 2 18.6447 123.560 9 980 0 0 18.4445 123.249 4 77 980 18.8522 123.230 TC 85 18.8489 123.262 4 83 18.8522 123.230 85 982 420 12 309
1951255N08148 1951 69 WP MM ORA 1951-09-18 12:00:00 TS 19.0667 122.783 980 tokyo main 94 84 OOO______OOO__ jtwc_wp WP091951 19.2000 122.700 85 2 19.0000 123.000 9 980 0 0 0 18.6000 122.900 4 77 980 19.2000 122.700 TC 85 19.2000 122.700 4 85 19.2000 122.700 85 982 420 12 296
1951255N08148 1951 69 WP MM ORA 1951-09-18 15:00:00 TS 19.2701 122.147 main 100 94 PPP______PPP__ WP091951 19.4099 122.080 85 2 19.2181 122.243 9 980 0 0 18.7727 122.358 4 72 980 19.4099 122.080 TC 85 19.4001 122.045 4 85 19.4099 122.080 85 982 420 13 284
1951255N08148 1951 69 WP MM ORA 1951-09-18 18:00:00 TS 19.3657 121.474 980 tokyo main 101 89 OOO______OPO__ jtwc_wp WP091951 19.5000 121.400 85 2 19.3000 121.500 9 980 0 0 0 18.9000 121.800 4 68 980 19.5000 121.400 TC 85 19.4940 121.341 4 85 19.5000 121.400 85 982 420 12 276
1951255N08148 1951 69 WP MM ORA 1951-09-18 21:00:00 TS 19.3892 120.840 main 89 89 PPP______PPP__ WP091951 19.5227 120.670 85 2 19.2871 120.990 9 980 0 0 18.9646 121.400 4 68 980 19.5227 120.670 TC 85 19.5157 120.642 4 85 19.5227 120.670 85 981 390 11 270
1951255N08148 1951 69 WP MM ORA 1951-09-19 00:00:00 TS 19.3667 120.267 980 tokyo main 103 103 OOO______OOO__ jtwc_wp WP091951 19.5000 120.000 85 2 19.2000 120.600 9 980 0 0 0 19.0000 121.000 4 68 980 19.5000 120.000 TC 85 19.5000 120.000 4 85 19.5000 120.000 85 981 360 10 268
1951255N08148 1951 69 WP MM ORA 1951-09-19 03:00:00 TS 19.3603 119.796 main 138 138 PPP______PPP__ WP091951 19.5071 119.513 85 2 19.0920 120.280 9 980 0 0 19.0500 120.472 4 68 980 19.5071 119.513 TC 85 19.4984 119.485 4 83 19.5071 119.513 85 981 330 9 269
1951255N08148 1951 69 WP MM ORA 1951-09-19 06:00:00 TS 19.3451 119.355 980 tokyo main 161 161 OOO______OPO__ jtwc_wp WP091951 19.5000 119.100 85 2 19.0000 119.900 9 980 0 0 0 19.1000 119.900 4 68 980 19.5000 119.100 TC 85 19.4709 119.032 4 82 19.5000 119.100 85 981 300 9 267
1951255N08148 1951 69 WP MM ORA 1951-09-19 09:00:00 TS 19.3172 118.863 main 205 205 PPP______PPP__ WP091951 19.4499 118.650 82 1 18.9704 119.272 9 980 0 0 19.1499 119.342 4 68 980 19.4499 118.650 TC 82 19.4330 118.613 4 81 19.4499 118.650 82 982 300 9 267
1951255N08148 1951 69 WP MM ORA 1951-09-19 12:00:00 TS 19.3000 118.367 980 tokyo main 252 252 OOO______OOO__ jtwc_wp WP091951 19.4000 118.200 80 1 19.0000 118.600 9 980 0 0 0 19.2000 118.800 4 68 980 19.4000 118.200 TC 80 19.4000 118.200 4 80 19.4000 118.200 80 983 300 9 270
1951255N08148 1951 69 WP MM ORA 1951-09-19 15:00:00 TS 19.3173 117.897 main 301 301 PPP______PPP__ WP091951 19.3924 117.750 77 1 19.0770 118.092 9 980 0 0 19.2574 118.285 4 68 980 19.3924 117.750 TC 77 19.3924 117.754 4 77 19.3924 117.750 77 985 300 9 273
1951255N08148 1951 69 WP MM ORA 1951-09-19 18:00:00 TS 19.3487 117.435 980 tokyo main 351 351 OOO______OPO__ jtwc_wp WP091951 19.4000 117.300 75 1 19.2000 117.600 9 980 0 0 0 19.3000 117.800 4 68 980 19.4000 117.300 TC 75 19.3919 117.308 4 75 19.4000 117.300 75 987 300 9 274
1951255N08148 1951 69 WP MM ORA 1951-09-19 21:00:00 TS 19.3767 116.960 main 389 376 PPP______PPP__ WP091951 19.3998 116.858 72 1 19.3652 116.985 9 980 0 0 19.2998 117.342 4 68 980 19.3998 116.858 TC 72 19.3955 116.857 4 72 19.3998 116.858 72 988 300 9 273
1951255N08148 1951 69 WP MM ORA 1951-09-20 00:00:00 TS 19.4000 116.483 980 tokyo main 376 364 OOO______OOO__ jtwc_wp WP091951 19.4000 116.400 70 1 19.5000 116.400 9 980 0 0 0 19.3000 116.900 4 68 980 19.4000 116.400 TC 70 19.4000 116.400 4 70 19.4000 116.400 70 990 300 9 272
1951255N08148 1951 69 WP MM ORA 1951-09-20 03:00:00 TS 19.4125 116.013 main 364 351 PPP______PPP__ WP091951 19.4000 115.900 67 1 19.5296 115.985 9 980 0 0 19.3499 116.450 4 68 980 19.4000 115.900 TC 67 19.3955 115.940 4 67 19.4000 115.900 67 991 300 9 271
1951255N08148 1951 69 WP MM ORA 1951-09-20 06:00:00 TS 19.4153 115.545 980 tokyo main 347 334 OOO______OPO__ jtwc_wp WP091951 19.4000 115.400 65 1 19.5000 115.600 9 980 0 0 0 19.4000 116.000 4 68 980 19.4000 115.400 TC 65 19.3919 115.472 4 65 19.4000 115.400 65 993 300 9 270
1951255N08148 1951 69 WP MM ORA 1951-09-20 09:00:00 TS 19.4081 115.090 main 334 325 PPP______PPP__ WP091951 19.3997 114.958 62 0 19.4498 115.130 9 980 0 0 19.4074 115.542 4 68 980 19.3997 114.958 TC 62 19.3923 114.993 4 62 19.3997 114.958 62 994 270 9 269
1951255N08148 1951 69 WP MM ORA 1951-09-20 12:00:00 TS 19.4000 114.617 980 tokyo main 325 302 OOO______OOO__ jtwc_wp WP091951 19.4000 114.500 60 0 19.4000 114.600 9 980 0 0 0 19.4000 115.100 4 68 980 19.4000 114.500 TC 60 19.4000 114.500 2 60 19.4000 114.500 60 995 240 9 269
1951255N08148 1951 69 WP MM ORA 1951-09-20 15:00:00 TS 19.3966 114.093 main 302 273 PPP______PPP__ WP091951 19.3925 113.957 57 0 19.3926 113.993 9 980 0 0 19.3923 114.700 4 63 982 19.3925 113.957 TC 57 19.4170 113.991 2 57 19.3925 113.957 57 996 240 10 270
1951255N08148 1951 69 WP MM ORA 1951-09-20 18:00:00 TS 19.4054 113.565 980 tokyo main 273 221 OOO______OPO__ jtwc_wp WP091951 19.4000 113.400 55 0 19.4000 113.400 9 980 0 0 0 19.4000 114.300 3 58 985 19.4000 113.400 TC 55 19.4414 113.468 2 55 19.4000 113.400 55 997 240 10 272
1951255N08148 1951 69 WP MM ORA 1951-09-20 21:00:00 TS 19.4344 113.076 main 221 168 PPP______PPP__ WP091951 19.4424 112.885 52 0 19.3997 112.928 9 985 0 0 19.4274 113.865 3 48 990 19.4424 112.885 TC 52 19.4700 112.936 2 52 19.4424 112.885 52 997 240 9 275
1951255N08148 1951 69 WP MM ORA 1951-09-21 00:00:00 TS 19.4800 112.620 990 tokyo main 168 126 OOO______OOO__ jtwc_wp WP091951 19.5000 112.400 50 0 19.4000 112.500 9 990 0 0 0 19.5000 113.400 2 38 996 19.5000 112.400 TC 50 19.5000 112.400 2 50 19.5000 112.400 50 998 240 9 275
1951255N08148 1951 69 WP MM ORA 1951-09-21 03:00:00 TS 19.5076 112.149 main 115 83 PPP______P_P__ WP091951 19.4977 111.875 47 0 19.3923 112.057 9 990 0 0 19.6200 112.892 2 33 997 19.4977 111.875 TC 47 2 19.5527 111.943 47 999 180 8 278
1951255N08148 1951 69 WP MM ORA 1951-09-21 06:00:00 TS 19.6000 111.735 990 tokyo main 73 56 OOO______O_O__ jtwc_wp WP091951 19.6000 111.500 45 0 19.4000 111.600 9 990 0 0 0 19.8000 112.400 1 29 998 19.6000 111.500 TC 45 2 19.6000 111.500 45 1000 120 7 301
1951255N08148 1951 69 WP MM ORA 1951-09-21 09:00:00 TS 19.8672 111.521 main 62 53 PPP______P____ WP091951 19.9923 111.470 45 0 19.4499 111.115 9 990 0 0 20.0344 112.030 1 29 998 19.9923 111.470 TC 45 2 7 327
1951255N08148 1951 69 WP MM ORA 1951-09-21 12:00:00 TS 20.1857 111.329 990 tokyo main 53 45 OOO______O____ jtwc_wp WP091951 20.4000 111.500 45 0 19.5000 110.600 9 990 0 0 0 20.3000 111.600 1 29 998 20.4000 111.500 TC 45 7 317
1951255N08148 1951 69 WP MM ORA 1951-09-21 15:00:00 TS 20.3649 111.029 main 45 31 PPP______P____ WP091951 20.5301 111.287 42 0 19.5129 110.057 9 993 0 0 20.5560 110.966 1 24 999 20.5301 111.287 TC 42 6 302
1951255N08148 1951 69 WP MM ORA 1951-09-21 18:00:00 TS 20.5100 110.770 996 tokyo main 31 31 OOO______O____ jtwc_wp WP091951 20.6000 111.000 40 0 19.5000 109.500 9 996 0 0 0 20.8000 110.200 0 19 1000 20.6000 111.000 TC 40 5 327
1951255N08148 1951 69 WP MM ORA 1951-09-21 21:00:00 TS 20.7775 110.750 main 33 22 P________P____ WP091951 20.7775 110.750 37 0 9 0 0 0 20.7775 110.750 TC 37 6 333
1951255N08148 1951 69 WP MM ORA 1951-09-22 00:00:00 TS 21.0000 110.500 main 22 0 O________O____ jtwc_wp WP091951 21.0000 110.500 35 0 21.0000 110.500 TC 35 7 315
1951255N08148 1951 69 WP MM ORA 1951-09-22 03:00:00 TS 21.2451 110.250 main 0 0 P________P____ WP091951 21.2451 110.250 32 -1 21.2451 110.250 TC 32 7 317
1951255N08148 1951 69 WP MM ORA 1951-09-22 06:00:00 TS 21.5000 110.000 main 0 O________O____ jtwc_wp WP091951 21.5000 110.000 30 -1 21.5000 110.000 TC 30 7 317

デジタル台風データ・検索

IBTrACS Databaseについて

本データベースは、米国NOAAが公開する1842年以降の世界の熱帯低気圧のベストトラックデータアーカイブInternational Best Track Archive for Climate Stewardship (IBTrACS)を、ウェブで閲覧しやすい形式に変換したものです。

最終更新日:2021-10-21